createdAt,value
2022-10-12T00:00:31.709Z,14.41
2022-10-12T00:01:32.405Z,14.37
2022-10-12T00:02:32.799Z,14.37
2022-10-12T00:03:33.436Z,14.51
2022-10-12T00:04:34.347Z,14.41
2022-10-12T00:05:33.916Z,14.44
2022-10-12T00:06:34.824Z,14.4
2022-10-12T00:07:36.111Z,14.38
2022-10-12T00:08:36.402Z,14.41
2022-10-12T00:09:36.387Z,14.37
2022-10-12T00:10:36.611Z,14.4
2022-10-12T00:11:36.826Z,14.44
2022-10-12T00:12:37.539Z,14.52
2022-10-12T00:13:38.039Z,14.44
2022-10-12T00:14:37.932Z,14.43
2022-10-12T00:15:38.566Z,14.4
2022-10-12T00:16:39.189Z,14.41
2022-10-12T00:17:40.919Z,14.43
2022-10-12T00:18:40.832Z,14.36
2022-10-12T00:19:41.742Z,14.34
2022-10-12T00:20:42.659Z,14.4
2022-10-12T00:21:42.577Z,14.33
2022-10-12T00:22:43.169Z,14.37
2022-10-12T00:23:43.130Z,14.38
2022-10-12T00:24:48.569Z,14.4
2022-10-12T00:25:44.904Z,14.44
2022-10-12T00:26:44.518Z,14.45
2022-10-12T00:27:45.856Z,14.52
2022-10-12T00:28:46.074Z,14.43
2022-10-12T00:29:46.138Z,14.49
2022-10-12T00:30:46.754Z,14.49
2022-10-12T00:31:47.666Z,14.45
2022-10-12T00:32:48.099Z,14.53
2022-10-12T00:33:48.318Z,14.51
2022-10-12T00:34:48.254Z,14.45
2022-10-12T00:35:48.618Z,14.44
2022-10-12T00:36:49.519Z,14.51
2022-10-12T00:37:50.435Z,14.49
2022-10-12T00:38:51.628Z,14.48
2022-10-12T00:39:51.243Z,14.51
2022-10-12T00:40:52.466Z,14.55
2022-10-12T00:41:52.678Z,14.41
2022-10-12T00:42:53.717Z,14.45
2022-10-12T00:43:59.193Z,14.41
2022-10-12T00:44:55.689Z,14.41
2022-10-12T00:45:56.705Z,14.44
2022-10-12T00:46:56.934Z,14.37
2022-10-12T00:47:58.133Z,14.44
2022-10-12T00:48:58.364Z,14.38
2022-10-12T00:49:59.578Z,14.36
2022-10-12T00:50:59.849Z,14.34
2022-10-12T00:52:00.764Z,14.36
2022-10-12T00:53:00.782Z,14.38
2022-10-12T00:54:01.014Z,14.37
2022-10-12T00:55:01.356Z,14.41
2022-10-12T00:56:02.281Z,14.43
2022-10-12T00:57:02.486Z,14.41
2022-10-12T00:58:03.081Z,14.43
2022-10-12T00:59:04.006Z,14.38
2022-10-12T01:00:04.503Z,14.38
2022-10-12T01:01:04.716Z,14.41
2022-10-12T01:02:04.545Z,14.43
2022-10-12T01:03:05.849Z,14.44
2022-10-12T01:04:06.336Z,14.41
2022-10-12T01:05:07.232Z,14.4
2022-10-12T01:06:07.852Z,14.4
2022-10-12T01:07:09.032Z,14.41
2022-10-12T01:08:09.647Z,14.4
2022-10-12T01:09:10.277Z,14.44
2022-10-12T01:10:10.593Z,14.38
2022-10-12T01:11:11.814Z,14.36
2022-10-12T01:12:12.714Z,14.44
2022-10-12T01:13:13.152Z,14.4
2022-10-12T01:14:13.383Z,14.41
2022-10-12T01:15:13.888Z,14.37
2022-10-12T01:16:14.106Z,14.4
2022-10-12T01:17:14.721Z,14.37
2022-10-12T01:18:15.916Z,14.41
2022-10-12T01:19:15.814Z,14.48
2022-10-12T01:20:16.425Z,14.4
2022-10-12T01:21:17.663Z,14.37
2022-10-12T01:22:17.839Z,14.38
2022-10-12T01:23:18.862Z,14.33
2022-10-12T01:24:19.203Z,14.26
2022-10-12T01:25:19.394Z,14.31
2022-10-12T01:26:20.294Z,14.26
2022-10-12T01:27:20.629Z,14.25
2022-10-12T01:28:21.995Z,14.2
2022-10-12T01:29:22.070Z,14.22
2022-10-12T01:30:21.984Z,14.31
2022-10-12T01:31:22.607Z,14.31
2022-10-12T01:32:23.071Z,14.22
2022-10-12T01:33:24.073Z,14.18
2022-10-12T01:34:24.290Z,14.2
2022-10-12T01:35:24.910Z,14.19
2022-10-12T01:36:25.129Z,14.2
2022-10-12T01:37:26.008Z,14.23
2022-10-12T01:38:27.274Z,14.26
2022-10-12T01:39:27.194Z,14.33
2022-10-12T01:40:28.401Z,14.3
2022-10-12T01:41:29.649Z,14.28
2022-10-12T01:42:30.549Z,14.25
2022-10-12T01:43:30.557Z,14.28
2022-10-12T01:44:31.527Z,14.28
2022-10-12T01:45:32.038Z,14.34
2022-10-12T01:46:32.074Z,14.34
2022-10-12T01:47:32.703Z,14.34
2022-10-12T01:48:33.856Z,14.26
2022-10-12T01:49:34.472Z,14.37
2022-10-12T01:50:34.107Z,14.26
2022-10-12T01:51:35.449Z,14.37
2022-10-12T01:52:36.349Z,14.34
2022-10-12T01:53:37.633Z,14.3
2022-10-12T01:54:38.256Z,14.31
2022-10-12T01:55:38.876Z,14.36
2022-10-12T01:56:39.800Z,14.36
2022-10-12T01:57:41.172Z,14.3
2022-10-12T01:58:40.435Z,14.34
2022-10-12T01:59:40.654Z,14.37
2022-10-12T02:00:41.736Z,14.36
2022-10-12T02:01:42.153Z,14.43
2022-10-12T02:02:42.374Z,14.41
2022-10-12T02:03:43.109Z,14.37
2022-10-12T02:04:44.025Z,14.4
2022-10-12T02:05:44.637Z,14.34
2022-10-12T02:06:45.559Z,14.3
2022-10-12T02:07:46.368Z,14.41
2022-10-12T02:08:46.281Z,14.25
2022-10-12T02:09:47.192Z,14.38
2022-10-12T02:10:47.233Z,14.41
2022-10-12T02:11:48.172Z,14.4
2022-10-12T02:12:48.803Z,14.41
2022-10-12T02:13:49.197Z,14.33
2022-10-12T02:14:50.121Z,14.4
2022-10-12T02:15:50.437Z,14.3
2022-10-12T02:16:51.353Z,14.28
2022-10-12T02:17:51.857Z,14.41
2022-10-12T02:18:52.076Z,14.31
2022-10-12T02:19:51.713Z,14.34
2022-10-12T02:20:52.335Z,14.38
2022-10-12T02:21:53.278Z,14.33
2022-10-12T02:22:53.173Z,14.34
2022-10-12T02:23:53.866Z,14.34
2022-10-12T02:24:54.800Z,14.38
2022-10-12T02:25:54.836Z,14.3
2022-10-12T02:26:55.759Z,14.38
2022-10-12T02:27:56.242Z,14.3
2022-10-12T02:28:56.352Z,14.36
2022-10-12T02:29:56.288Z,14.26
2022-10-12T02:30:57.497Z,14.38
2022-10-12T02:31:57.987Z,14.34
2022-10-12T02:32:57.892Z,14.2
2022-10-12T02:33:58.613Z,14.26
2022-10-12T02:34:58.831Z,14.3
2022-10-12T02:35:59.461Z,14.25
2022-10-12T02:36:59.758Z,14.3
2022-10-12T02:37:59.959Z,14.34
2022-10-12T02:39:00.854Z,14.37
2022-10-12T02:40:01.468Z,14.25
2022-10-12T02:41:02.686Z,14.36
2022-10-12T02:42:03.354Z,14.3
2022-10-12T02:43:16.004Z,14.38
2022-10-12T02:44:04.298Z,14.38
2022-10-12T02:45:04.794Z,14.4
2022-10-12T02:46:04.985Z,14.41
2022-10-12T02:47:05.002Z,14.43
2022-10-12T02:48:05.922Z,14.25
2022-10-12T02:49:06.844Z,14.3
2022-10-12T02:50:06.758Z,14.33
2022-10-12T02:51:07.094Z,14.33
2022-10-12T02:52:08.315Z,14.34
2022-10-12T02:53:08.517Z,14.33
2022-10-12T02:54:09.231Z,14.25
2022-10-12T02:55:10.459Z,14.22
2022-10-12T02:56:10.956Z,14.26
2022-10-12T02:57:11.904Z,14.19
2022-10-12T02:58:11.536Z,14.19
2022-10-12T02:59:13.025Z,14.23
2022-10-12T03:00:12.951Z,14.13
2022-10-12T03:01:14.174Z,14.08
2022-10-12T03:02:14.332Z,14.03
2022-10-12T03:03:14.531Z,13.93
2022-10-12T03:04:14.856Z,14.03
2022-10-12T03:05:15.343Z,13.94
2022-10-12T03:06:15.279Z,13.95
2022-10-12T03:07:15.955Z,13.89
2022-10-12T03:08:16.833Z,13.86
2022-10-12T03:09:17.451Z,13.98
2022-10-12T03:10:17.936Z,13.86
2022-10-12T03:11:17.846Z,13.79
2022-10-12T03:12:19.070Z,13.83
2022-10-12T03:13:19.663Z,13.87
2022-10-12T03:14:20.375Z,13.85
2022-10-12T03:15:21.286Z,13.83
2022-10-12T03:16:21.921Z,13.85
2022-10-12T03:17:22.560Z,13.85
2022-10-12T03:18:23.774Z,13.89
2022-10-12T03:19:23.685Z,13.8
2022-10-12T03:20:24.579Z,13.85
2022-10-12T03:21:24.916Z,13.83
2022-10-12T03:22:25.837Z,13.8
2022-10-12T03:23:26.440Z,13.83
2022-10-12T03:24:27.545Z,13.8
2022-10-12T03:25:27.474Z,13.8
2022-10-12T03:26:28.897Z,13.8
2022-10-12T03:27:29.128Z,13.78
2022-10-12T03:28:29.955Z,13.82
2022-10-12T03:29:29.770Z,13.75
2022-10-12T03:30:31.003Z,13.83
2022-10-12T03:31:31.191Z,13.76
2022-10-12T03:32:32.380Z,13.75
2022-10-12T03:33:32.009Z,13.75
2022-10-12T03:34:32.722Z,13.75
2022-10-12T03:35:32.616Z,13.79
2022-10-12T03:36:32.940Z,13.78
2022-10-12T03:37:33.590Z,13.78
2022-10-12T03:38:34.848Z,13.65
2022-10-12T03:39:35.035Z,13.73
2022-10-12T03:40:35.226Z,13.76
2022-10-12T03:41:36.142Z,13.71
2022-10-12T03:42:36.352Z,13.75
2022-10-12T03:43:36.965Z,13.71
2022-10-12T03:44:37.387Z,13.75
2022-10-12T03:45:37.621Z,13.75
2022-10-12T03:46:38.551Z,13.83
2022-10-12T03:47:40.781Z,13.82
2022-10-12T03:48:39.623Z,13.75
2022-10-12T03:49:40.233Z,13.8
2022-10-12T03:50:41.162Z,13.85
2022-10-12T03:51:42.359Z,13.86
2022-10-12T03:52:42.598Z,13.94
2022-10-12T03:53:50.005Z,13.87
2022-10-12T03:54:43.719Z,13.98
2022-10-12T03:55:44.354Z,14.03
2022-10-12T03:56:44.686Z,13.98
2022-10-12T03:57:46.533Z,14.07
2022-10-12T03:58:46.149Z,14
2022-10-12T03:59:47.347Z,14.03
2022-10-12T04:00:47.593Z,14.03
2022-10-12T04:01:47.951Z,14.07
2022-10-12T04:02:47.380Z,13.93
2022-10-12T04:03:48.311Z,14.07
2022-10-12T04:04:49.336Z,14.03
2022-10-12T04:05:50.241Z,13.94
2022-10-12T04:06:50.877Z,13.98
2022-10-12T04:07:51.512Z,14.03
2022-10-12T04:08:56.810Z,14.05
2022-10-12T04:09:53.020Z,14.01
2022-10-12T04:10:53.934Z,14.03
2022-10-12T04:11:54.831Z,14.03
2022-10-12T04:12:55.731Z,14.01
2022-10-12T04:13:55.649Z,14.03
2022-10-12T04:14:56.643Z,14.08
2022-10-12T04:15:57.569Z,14.04
2022-10-12T04:16:57.766Z,14.04
2022-10-12T04:17:57.951Z,14.03
2022-10-12T04:18:58.879Z,14.07
2022-10-12T04:19:59.080Z,14.07
2022-10-12T04:21:00.270Z,14.07
2022-10-12T04:22:00.607Z,14.03
2022-10-12T04:23:00.950Z,14.05
2022-10-12T04:24:01.856Z,14
2022-10-12T04:25:02.301Z,14.03
2022-10-12T04:26:03.220Z,14.05
2022-10-12T04:27:03.537Z,13.93
2022-10-12T04:28:04.455Z,13.97
2022-10-12T04:29:04.585Z,13.93
2022-10-12T04:30:04.498Z,13.98
2022-10-12T04:31:06.090Z,13.97
2022-10-12T04:32:12.766Z,14.04
2022-10-12T04:33:06.516Z,13.97
2022-10-12T04:34:07.714Z,13.97
2022-10-12T04:35:08.725Z,13.94
2022-10-12T04:36:08.646Z,13.95
2022-10-12T04:37:08.984Z,14.04
2022-10-12T04:38:10.200Z,14.11
2022-10-12T04:39:10.405Z,14.08
2022-10-12T04:40:10.717Z,14.05
2022-10-12T04:41:11.902Z,14.03
2022-10-12T04:42:11.516Z,14.08
2022-10-12T04:43:12.739Z,14.04
2022-10-12T04:44:13.375Z,14.07
2022-10-12T04:45:13.833Z,14.11
2022-10-12T04:46:14.329Z,14.05
2022-10-12T04:47:13.946Z,14.04
2022-10-12T04:48:14.682Z,14.04
2022-10-12T04:49:15.333Z,14.16
2022-10-12T04:50:16.568Z,14.15
2022-10-12T04:51:17.224Z,14.15
2022-10-12T04:52:16.834Z,14.11
2022-10-12T04:53:18.075Z,14.11
2022-10-12T04:54:18.287Z,14.15
2022-10-12T04:55:18.855Z,14.16
2022-10-12T04:56:19.492Z,14.16
2022-10-12T04:57:20.403Z,14.12
2022-10-12T04:58:20.633Z,14.07
2022-10-12T04:59:21.528Z,14.15
2022-10-12T05:00:22.145Z,14.13
2022-10-12T05:01:23.185Z,14.16
2022-10-12T05:02:23.573Z,14.18
2022-10-12T05:03:24.211Z,14.13
2022-10-12T05:04:25.026Z,14.13
2022-10-12T05:05:26.160Z,14.2
2022-10-12T05:06:27.048Z,14.13
2022-10-12T05:07:26.956Z,14.25
2022-10-12T05:08:27.825Z,14.16
2022-10-12T05:09:28.000Z,14.22
2022-10-12T05:10:28.491Z,14.18
2022-10-12T05:11:28.827Z,14.2
2022-10-12T05:12:30.018Z,14.23
2022-10-12T05:13:30.547Z,14.22
2022-10-12T05:14:36.235Z,14.19
2022-10-12T05:15:31.027Z,14.23
2022-10-12T05:16:31.235Z,14.25
2022-10-12T05:17:32.155Z,14.3
2022-10-12T05:18:32.538Z,14.31
2022-10-12T05:19:32.773Z,14.3
2022-10-12T05:20:33.759Z,14.25
2022-10-12T05:21:33.379Z,14.26
2022-10-12T05:22:34.012Z,14.26
2022-10-12T05:23:34.866Z,14.3
2022-10-12T05:24:35.192Z,14.33
2022-10-12T05:25:36.245Z,14.36
2022-10-12T05:26:37.180Z,14.25
2022-10-12T05:27:38.003Z,14.3
2022-10-12T05:28:42.705Z,14.33
2022-10-12T05:29:38.676Z,14.31
2022-10-12T05:30:39.289Z,14.23
2022-10-12T05:31:39.939Z,14.28
2022-10-12T05:32:40.987Z,14.3
2022-10-12T05:33:41.026Z,14.23
2022-10-12T05:34:41.961Z,14.2
2022-10-12T05:35:50.259Z,14.18
2022-10-12T05:36:42.321Z,14.13
2022-10-12T05:37:43.452Z,14.12
2022-10-12T05:38:44.088Z,14.03
2022-10-12T05:39:44.704Z,14.08
2022-10-12T05:40:46.021Z,14.08
2022-10-12T05:41:46.228Z,14.11
2022-10-12T05:42:47.351Z,14.07
2022-10-12T05:43:47.858Z,14.05
2022-10-12T05:44:47.770Z,14.13
2022-10-12T05:45:48.197Z,14.12
2022-10-12T05:46:48.825Z,13.98
2022-10-12T05:47:50.032Z,14
2022-10-12T05:48:50.043Z,14.05
2022-10-12T05:49:51.257Z,14.07
2022-10-12T05:50:52.201Z,14.03
2022-10-12T05:51:52.400Z,14.05
2022-10-12T05:52:52.316Z,14.04
2022-10-12T05:53:52.945Z,14.04
2022-10-12T05:54:54.124Z,14.12
2022-10-12T05:55:54.834Z,14.16
2022-10-12T05:56:55.030Z,14.15
2022-10-12T05:57:57.601Z,14.15
2022-10-12T05:58:56.527Z,14.19
2022-10-12T05:59:56.715Z,14.16
2022-10-12T06:00:57.629Z,14.13
2022-10-12T06:01:58.186Z,14.13
2022-10-12T06:02:58.502Z,14.13
2022-10-12T06:03:59.421Z,14.15
2022-10-12T06:04:59.645Z,14.13
2022-10-12T06:06:00.709Z,14.2
2022-10-12T06:07:01.353Z,14.16
2022-10-12T06:08:01.540Z,14.11
2022-10-12T06:09:02.490Z,14.16
2022-10-12T06:10:03.676Z,14.16
2022-10-12T06:11:03.348Z,14.04
2022-10-12T06:12:03.757Z,14.03
2022-10-12T06:13:04.952Z,14.13
2022-10-12T06:14:05.887Z,14.04
2022-10-12T06:15:05.543Z,14.08
2022-10-12T06:16:06.403Z,14.11
2022-10-12T06:17:07.333Z,14.04
2022-10-12T06:18:08.253Z,14.15
2022-10-12T06:19:07.910Z,14.05
2022-10-12T06:20:08.512Z,14.05
2022-10-12T06:21:37.858Z,13.95
2022-10-12T06:22:09.777Z,14.03
2022-10-12T06:23:10.718Z,14.08
2022-10-12T06:24:11.721Z,14.01
2022-10-12T06:25:12.984Z,14
2022-10-12T06:26:13.003Z,14.07
2022-10-12T06:27:14.219Z,14.01
2022-10-12T06:28:13.876Z,13.94
2022-10-12T06:29:14.718Z,13.98
2022-10-12T06:30:14.930Z,13.91
2022-10-12T06:31:15.149Z,13.89
2022-10-12T06:32:15.364Z,13.93
2022-10-12T06:33:15.748Z,14.05
2022-10-12T06:34:16.464Z,14.05
2022-10-12T06:35:17.374Z,14.01
2022-10-12T06:36:17.794Z,14.04
2022-10-12T06:37:50.828Z,14.08
2022-10-12T06:38:20.024Z,14.05
2022-10-12T06:39:19.969Z,14.07
2022-10-12T06:40:21.155Z,14.15
2022-10-12T06:41:21.879Z,14.15
2022-10-12T06:42:22.099Z,14.2
2022-10-12T06:43:23.005Z,14.19
2022-10-12T06:44:23.034Z,14.25
2022-10-12T06:45:23.376Z,14.2
2022-10-12T06:46:24.734Z,14.33
2022-10-12T06:47:25.666Z,14.31
2022-10-12T06:48:26.166Z,14.31
2022-10-12T06:49:26.659Z,14.31
2022-10-12T06:50:26.872Z,14.36
2022-10-12T06:51:26.777Z,14.2
2022-10-12T06:52:27.370Z,14.38
2022-10-12T06:53:27.872Z,14.26
2022-10-12T06:54:29.089Z,14.36
2022-10-12T06:55:29.742Z,14.37
2022-10-12T06:56:30.445Z,14.38
2022-10-12T06:57:30.790Z,14.41
2022-10-12T06:58:31.432Z,14.4
2022-10-12T06:59:32.649Z,14.33
2022-10-12T07:00:32.867Z,14.33
2022-10-12T07:01:33.204Z,14.44
2022-10-12T07:02:34.005Z,14.43
2022-10-12T07:03:35.357Z,14.36
2022-10-12T07:04:36.584Z,14.51
2022-10-12T07:05:36.532Z,14.45
2022-10-12T07:06:36.634Z,14.43
2022-10-12T07:07:37.548Z,14.56
2022-10-12T07:08:38.044Z,14.52
2022-10-12T07:09:38.269Z,14.56
2022-10-12T07:10:38.482Z,14.55
2022-10-12T07:11:39.396Z,14.58
2022-10-12T07:12:40.370Z,14.55
2022-10-12T07:13:40.045Z,14.7
2022-10-12T07:14:40.415Z,14.73
2022-10-12T07:15:40.629Z,14.71
2022-10-12T07:16:41.344Z,14.77
2022-10-12T07:17:42.371Z,14.7
2022-10-12T07:18:42.870Z,14.79
2022-10-12T07:19:43.527Z,14.96
2022-10-12T07:20:44.074Z,14.96
2022-10-12T07:21:44.577Z,15.05
2022-10-12T07:22:44.510Z,15.02
2022-10-12T07:23:50.995Z,15.02
2022-10-12T07:24:44.976Z,15.1
2022-10-12T07:25:45.938Z,15.08
2022-10-12T07:26:46.015Z,15.11
2022-10-12T07:27:47.847Z,15.15
2022-10-12T07:28:47.280Z,15.18
2022-10-12T07:29:47.833Z,15.19
2022-10-12T07:30:48.034Z,15.22
2022-10-12T07:31:52.203Z,15.3
2022-10-12T07:32:49.488Z,15.3
2022-10-12T07:33:49.575Z,15.27
2022-10-12T07:34:50.636Z,15.32
2022-10-12T07:36:23.589Z,15.32
2022-10-12T07:37:37.026Z,15.3
2022-10-12T07:38:37.375Z,15.32
2022-10-12T07:39:38.382Z,15.33
2022-10-12T07:40:38.627Z,15.32
2022-10-12T07:41:39.556Z,15.29
2022-10-12T07:43:15.975Z,15.33
2022-10-12T07:43:40.815Z,15.32
2022-10-12T07:44:41.431Z,15.35
2022-10-12T07:45:43.059Z,15.35
2022-10-12T07:46:42.283Z,15.3
2022-10-12T07:47:43.757Z,15.32
2022-10-12T07:48:50.650Z,15.35
2022-10-12T07:49:44.333Z,15.26
2022-10-12T07:50:44.755Z,15.25
2022-10-12T07:51:45.663Z,15.25
2022-10-12T07:52:46.287Z,15.29
2022-10-12T07:53:47.197Z,15.32
2022-10-12T07:54:47.700Z,15.33
2022-10-12T07:55:48.667Z,15.33
2022-10-12T07:56:48.317Z,15.35
2022-10-12T07:57:49.334Z,15.33
2022-10-12T07:58:49.841Z,15.33
2022-10-12T07:59:49.830Z,15.23
2022-10-12T08:00:51.048Z,15.17
2022-10-12T08:01:51.240Z,15.18
2022-10-12T08:02:51.130Z,15.22
2022-10-12T08:03:52.148Z,15.15
2022-10-12T08:04:52.463Z,15.14
2022-10-12T08:05:53.442Z,15.33
2022-10-12T08:06:53.698Z,15.32
2022-10-12T08:07:54.491Z,15.45
2022-10-12T08:08:54.717Z,15.51
2022-10-12T08:09:55.975Z,15.51
2022-10-12T08:10:56.215Z,15.51
2022-10-12T08:11:57.403Z,15.55
2022-10-12T08:12:58.080Z,15.66
2022-10-12T08:13:58.274Z,15.69
2022-10-12T08:14:58.621Z,15.73
2022-10-12T08:15:59.222Z,15.73
2022-10-12T08:16:59.755Z,15.8
2022-10-12T08:17:59.866Z,15.83
2022-10-12T08:19:00.823Z,15.87
2022-10-12T08:20:01.744Z,15.84
2022-10-12T08:21:01.646Z,15.84
2022-10-12T08:22:02.599Z,15.88
2022-10-12T08:23:03.810Z,15.94
2022-10-12T08:24:04.012Z,15.94
2022-10-12T08:25:03.932Z,15.96
2022-10-12T08:26:04.910Z,15.98
2022-10-12T08:27:07.340Z,15.9
2022-10-12T08:28:06.176Z,16.1
2022-10-12T08:29:06.280Z,16.08
2022-10-12T08:30:07.486Z,16.06
2022-10-12T08:31:08.088Z,16.1
2022-10-12T08:32:08.008Z,16.05
2022-10-12T08:33:11.782Z,16.03
2022-10-12T08:34:09.060Z,16.03
2022-10-12T08:35:09.280Z,16.16
2022-10-12T08:36:09.212Z,16.18
2022-10-12T08:37:10.141Z,16.21
2022-10-12T08:38:10.344Z,16.16
2022-10-12T08:39:11.304Z,16.13
2022-10-12T08:40:12.741Z,16.1
2022-10-12T08:41:12.476Z,16.18
2022-10-12T08:42:13.099Z,16.21
2022-10-12T08:43:13.325Z,16.13
2022-10-12T08:44:13.839Z,16.13
2022-10-12T08:45:13.767Z,16.16
2022-10-12T08:46:14.657Z,16.03
2022-10-12T08:47:15.582Z,16.09
2022-10-12T08:48:16.257Z,16.06
2022-10-12T08:49:16.505Z,16.05
2022-10-12T08:50:16.423Z,16.02
2022-10-12T08:51:17.694Z,16.05
2022-10-12T08:52:17.638Z,16.05
2022-10-12T08:53:18.545Z,16.16
2022-10-12T08:54:19.506Z,16.1
2022-10-12T08:55:20.441Z,16.18
2022-10-12T08:56:21.466Z,16.21
2022-10-12T08:57:21.390Z,16.17
2022-10-12T08:58:21.678Z,16.13
2022-10-12T08:59:22.636Z,16.16
2022-10-12T09:00:23.772Z,16.17
2022-10-12T09:01:24.511Z,16.24
2022-10-12T09:02:24.399Z,16.25
2022-10-12T09:03:24.624Z,16.28
2022-10-12T09:04:25.864Z,16.25
2022-10-12T09:05:26.068Z,16.29
2022-10-12T09:06:26.307Z,16.4
2022-10-12T09:07:26.665Z,16.39
2022-10-12T09:08:26.797Z,16.46
2022-10-12T09:09:28.168Z,16.4
2022-10-12T09:10:28.863Z,16.34
2022-10-12T09:11:28.809Z,16.22
2022-10-12T09:12:29.053Z,16.21
2022-10-12T09:13:29.400Z,16.18
2022-10-12T09:14:29.775Z,16.1
2022-10-12T09:15:30.747Z,16.05
2022-10-12T09:16:31.918Z,16.17
2022-10-12T09:17:31.940Z,16.18
2022-10-12T09:18:39.793Z,16.28
2022-10-12T09:19:32.814Z,16.24
2022-10-12T09:20:32.506Z,16.34
2022-10-12T09:21:33.419Z,16.32
2022-10-12T09:22:33.637Z,16.37
2022-10-12T09:23:34.678Z,16.36
2022-10-12T09:24:34.911Z,16.29
2022-10-12T09:25:35.125Z,16.29
2022-10-12T09:26:35.410Z,16.26
2022-10-12T09:27:35.596Z,16.17
2022-10-12T09:28:38.483Z,16.26
2022-10-12T09:29:37.168Z,16.25
2022-10-12T09:30:37.367Z,16.31
2022-10-12T09:31:37.590Z,16.37
2022-10-12T09:32:37.496Z,16.36
2022-10-12T09:33:38.734Z,16.32
2022-10-12T09:34:38.376Z,16.28
2022-10-12T09:35:39.640Z,16.29
2022-10-12T09:36:40.855Z,16.26
2022-10-12T09:37:41.101Z,16.17
2022-10-12T09:38:41.394Z,16.21
2022-10-12T09:39:41.317Z,16.16
2022-10-12T09:40:42.574Z,16.21
2022-10-12T09:41:42.830Z,16.13
2022-10-12T09:42:42.758Z,16.24
2022-10-12T09:43:43.692Z,16.39
2022-10-12T09:44:44.340Z,16.31
2022-10-12T09:45:44.840Z,16.39
2022-10-12T09:46:45.104Z,16.34
2022-10-12T09:47:45.331Z,16.61
2022-10-12T09:48:49.345Z,16.57
2022-10-12T09:49:46.582Z,16.66
2022-10-12T09:50:47.146Z,16.64
2022-10-12T09:51:48.073Z,16.79
2022-10-12T09:52:48.707Z,16.77
2022-10-12T09:53:48.925Z,16.91
2022-10-12T09:54:50.140Z,16.95
2022-10-12T09:55:50.174Z,16.99
2022-10-12T09:56:51.155Z,17.07
2022-10-12T09:57:51.380Z,17.01
2022-10-12T09:58:52.446Z,17.02
2022-10-12T09:59:53.079Z,17.09
2022-10-12T10:00:53.744Z,17.19
2022-10-12T10:01:55.037Z,17.24
2022-10-12T10:02:54.929Z,17.23
2022-10-12T10:03:55.551Z,17.13
2022-10-12T10:04:56.471Z,17.2
2022-10-12T10:05:56.404Z,17.22
2022-10-12T10:06:57.350Z,17.2
2022-10-12T10:07:58.261Z,17.28
2022-10-12T10:08:58.993Z,17.22
2022-10-12T10:10:00.220Z,17.23
2022-10-12T10:11:00.124Z,17.2
2022-10-12T10:12:01.344Z,17.17
2022-10-12T10:13:01.988Z,17.2
2022-10-12T10:14:03.232Z,17.1
2022-10-12T10:15:03.856Z,17.07
2022-10-12T10:16:04.809Z,17.02
2022-10-12T10:17:05.779Z,16.91
2022-10-12T10:18:06.464Z,16.83
2022-10-12T10:19:07.471Z,16.8
2022-10-12T10:20:07.409Z,16.65
2022-10-12T10:21:08.501Z,16.64
2022-10-12T10:22:08.991Z,16.64
2022-10-12T10:23:09.931Z,16.55
2022-10-12T10:24:10.859Z,16.58
2022-10-12T10:25:11.065Z,16.58
2022-10-12T10:26:11.466Z,16.61
2022-10-12T10:27:11.470Z,16.57
2022-10-12T10:28:11.491Z,16.58
2022-10-12T10:29:12.113Z,16.62
2022-10-12T10:30:41.678Z,16.57
2022-10-12T10:31:13.069Z,16.65
2022-10-12T10:32:13.000Z,16.51
2022-10-12T10:33:13.905Z,16.62
2022-10-12T10:34:14.826Z,16.51
2022-10-12T10:35:15.043Z,16.51
2022-10-12T10:36:15.291Z,16.46
2022-10-12T10:37:15.592Z,16.46
2022-10-12T10:38:16.506Z,16.47
2022-10-12T10:39:17.530Z,16.69
2022-10-12T10:40:18.616Z,16.95
2022-10-12T10:41:18.377Z,17.31
2022-10-12T10:42:19.007Z,17.72
2022-10-12T10:43:20.221Z,17.94
2022-10-12T10:44:26.651Z,18.06
2022-10-12T10:45:21.390Z,18.23
2022-10-12T10:46:21.728Z,18.11
2022-10-12T10:47:21.941Z,18
2022-10-12T10:48:22.544Z,18.03
2022-10-12T10:49:23.583Z,17.82
2022-10-12T10:50:24.528Z,17.73
2022-10-12T10:51:24.483Z,17.76
2022-10-12T10:52:24.797Z,17.72
2022-10-12T10:53:25.036Z,17.71
2022-10-12T10:54:26.258Z,17.5
2022-10-12T10:55:26.204Z,17.49
2022-10-12T10:56:26.505Z,17.34
2022-10-12T10:57:27.036Z,17.17
2022-10-12T10:58:26.933Z,17.13
2022-10-12T10:59:27.662Z,17.05
2022-10-12T11:00:46.950Z,16.94
2022-10-12T11:01:29.724Z,16.92
2022-10-12T11:02:29.812Z,16.86
2022-10-12T11:03:31.010Z,16.86
2022-10-12T11:04:31.624Z,16.82
2022-10-12T11:05:32.543Z,16.8
2022-10-12T11:06:33.075Z,16.8
2022-10-12T11:07:33.723Z,16.86
2022-10-12T11:08:34.668Z,16.83
2022-10-12T11:09:35.333Z,16.91
2022-10-12T11:10:35.270Z,16.82
2022-10-12T11:11:35.948Z,16.82
2022-10-12T11:12:37.611Z,16.83
2022-10-12T11:13:37.095Z,16.89
2022-10-12T11:14:37.295Z,16.8
2022-10-12T11:15:37.490Z,16.73
2022-10-12T11:16:38.419Z,16.69
2022-10-12T11:17:39.142Z,16.68
2022-10-12T11:18:40.098Z,16.68
2022-10-12T11:19:41.165Z,16.74
2022-10-12T11:20:42.370Z,16.74
2022-10-12T11:21:42.631Z,16.66
2022-10-12T11:22:43.088Z,16.74
2022-10-12T11:23:44.144Z,16.83
2022-10-12T11:24:45.345Z,16.77
2022-10-12T11:25:49.501Z,16.79
2022-10-12T11:26:45.510Z,16.83
2022-10-12T11:27:53.850Z,16.84
2022-10-12T11:28:47.040Z,16.82
2022-10-12T11:30:09.131Z,16.82
2022-10-12T11:30:47.293Z,16.8
2022-10-12T11:31:47.927Z,16.94
2022-10-12T11:32:48.579Z,16.95
2022-10-12T11:33:48.926Z,17.02
2022-10-12T11:34:50.156Z,17.16
2022-10-12T11:35:50.081Z,17.14
2022-10-12T11:37:20.732Z,17.23
2022-10-12T11:37:51.607Z,17.3
2022-10-12T11:38:51.640Z,17.34
2022-10-12T11:39:52.538Z,17.37
2022-10-12T11:42:03.009Z,17.39
2022-10-12T11:42:35.037Z,17.46
2022-10-12T11:43:35.100Z,17.54
2022-10-12T11:44:36.974Z,17.63
2022-10-12T11:45:37.214Z,17.71
2022-10-12T11:46:37.620Z,17.66
2022-10-12T11:47:37.921Z,17.76
2022-10-12T11:48:38.131Z,17.73
2022-10-12T11:49:39.053Z,17.78
2022-10-12T11:50:39.399Z,17.76
2022-10-12T11:51:40.005Z,17.8
2022-10-12T11:52:40.682Z,17.84
2022-10-12T11:53:41.719Z,17.88
2022-10-12T11:54:41.951Z,17.87
2022-10-12T11:55:42.866Z,17.87
2022-10-12T11:56:43.032Z,17.73
2022-10-12T11:57:44.025Z,17.57
2022-10-12T11:59:06.376Z,17.52
2022-10-12T11:59:45.858Z,17.53
2022-10-12T12:00:46.589Z,17.54
2022-10-12T12:01:47.087Z,17.63
2022-10-12T12:02:47.995Z,17.65
2022-10-12T12:03:48.550Z,17.69
2022-10-12T12:04:51.053Z,17.76
2022-10-12T12:05:48.884Z,17.75
2022-10-12T12:06:49.809Z,17.8
2022-10-12T12:07:50.038Z,17.88
2022-10-12T12:08:51.245Z,17.9
2022-10-12T12:09:56.248Z,17.93
2022-10-12T12:10:52.283Z,18.03
2022-10-12T12:11:53.817Z,18.03
2022-10-12T12:12:54.037Z,17.98
2022-10-12T12:13:54.289Z,17.98
2022-10-12T12:14:55.323Z,18
2022-10-12T12:15:55.979Z,18.02
2022-10-12T12:16:57.006Z,18.11
2022-10-12T12:17:57.931Z,18.08
2022-10-12T12:18:58.257Z,18.13
2022-10-12T12:19:58.477Z,18.16
2022-10-12T12:20:58.971Z,18.12
2022-10-12T12:21:59.876Z,18.15
2022-10-12T12:22:59.522Z,18.15
2022-10-12T12:24:00.152Z,18.26
2022-10-12T12:25:00.791Z,18.16
2022-10-12T12:26:01.718Z,18.21
2022-10-12T12:27:02.116Z,18.12
2022-10-12T12:28:03.073Z,18.12
2022-10-12T12:29:03.441Z,18.21
2022-10-12T12:30:03.752Z,18.21
2022-10-12T12:31:04.181Z,18.19
2022-10-12T12:32:05.127Z,18.16
2022-10-12T12:33:05.650Z,18.15
2022-10-12T12:34:05.871Z,18.12
2022-10-12T12:35:06.416Z,18.13
2022-10-12T12:36:06.338Z,18.19
2022-10-12T12:37:06.967Z,18.23
2022-10-12T12:38:08.181Z,18.24
2022-10-12T12:39:08.114Z,18.27
2022-10-12T12:40:08.347Z,18.13
2022-10-12T12:41:09.352Z,18.26
2022-10-12T12:42:10.279Z,18.23
2022-10-12T12:43:10.791Z,18.23
2022-10-12T12:44:11.286Z,18.24
2022-10-12T12:45:11.545Z,18.18
2022-10-12T12:46:11.754Z,18.18
2022-10-12T12:47:47.183Z,18.21
2022-10-12T12:48:12.506Z,18.21
2022-10-12T12:49:12.653Z,18.15
2022-10-12T12:50:13.561Z,18.13
2022-10-12T12:51:14.603Z,18.16
2022-10-12T12:52:15.278Z,18.12
2022-10-12T12:53:15.790Z,18.16
2022-10-12T12:54:15.791Z,18.16
2022-10-12T12:55:17.038Z,18.15
2022-10-12T12:56:17.672Z,18.13
2022-10-12T12:57:17.589Z,18.16
2022-10-12T12:58:19.222Z,18.23
2022-10-12T12:59:19.718Z,18.21
2022-10-12T13:00:20.924Z,18.11
2022-10-12T13:01:21.582Z,18.19
2022-10-12T13:02:22.736Z,18.18
2022-10-12T13:03:22.637Z,18.15
2022-10-12T13:04:23.386Z,18.18